Time;durP1;ratioP1;P1;durP2;ratioP2;P2;SDS_P1;SDS_P2;PMS_P1;PMS_P2;Temp;Humidity;BMP_temperature;BMP_pressure;BME280_temperature;BME280_humidity;BME280_pressure;Samples;Min_cycle;Max_cycle;Signal;HPM_P1;HPM_P2
2021/09/23 00:02:16;;;;;;;34.42;18.88;;;11.30;99.90;;;;;;5011432;28;20038;-84
2021/09/23 00:04:43;;;;;;;33.28;18.95;;;11.30;99.90;;;;;;5006184;28;20032;-84
2021/09/23 00:07:08;;;;;;;33.10;18.60;;;11.30;99.90;;;;;;5011346;28;20038;-83
2021/09/23 00:09:34;;;;;;;36.83;18.75;;;11.30;99.90;;;;;;5011655;28;20034;-84
2021/09/23 00:11:59;;;;;;;45.40;19.25;;;11.30;99.90;;;;;;5011039;28;20058;-84
2021/09/23 00:14:25;;;;;;;41.38;19.88;;;11.30;99.90;;;;;;5009781;28;20057;-84
2021/09/23 00:16:51;;;;;;;34.95;20.48;;;11.30;99.90;;;;;;5009087;28;20068;-84
2021/09/23 00:19:18;;;;;;;36.55;19.58;;;11.30;99.90;;;;;;5009503;28;20032;-84
2021/09/23 00:21:43;;;;;;;39.53;21.05;;;11.30;99.90;;;;;;5011389;28;20061;-84
2021/09/23 00:24:09;;;;;;;39.70;21.30;;;11.30;99.90;;;;;;5009971;28;20061;-84
2021/09/23 00:26:35;;;;;;;39.47;21.27;;;11.30;99.90;;;;;;5011145;28;20029;-84
2021/09/23 00:29:03;;;;;;;41.15;21.50;;;11.30;99.90;;;;;;5009308;28;20490;-83
2021/09/23 00:31:30;;;;;;;39.83;21.60;;;11.20;99.90;;;;;;5011210;28;20469;-83
2021/09/23 00:33:55;;;;;;;46.65;23.00;;;11.20;99.90;;;;;;5006165;28;20502;-84
2021/09/23 00:36:21;;;;;;;41.38;22.30;;;11.20;99.90;;;;;;5010036;28;20026;-84
2021/09/23 00:38:46;;;;;;;33.35;20.75;;;11.10;99.90;;;;;;5011111;28;20048;-84
2021/09/23 00:41:12;;;;;;;37.03;20.42;;;11.10;99.90;;;;;;5011487;28;20026;-84
2021/09/23 00:43:37;;;;;;;39.90;21.77;;;11.10;99.90;;;;;;5009829;28;20042;-84
2021/09/23 00:46:03;;;;;;;46.00;21.25;;;11.20;99.90;;;;;;5010054;28;20112;-84
2021/09/23 00:48:31;;;;;;;40.80;21.15;;;11.20;99.90;;;;;;5010260;28;20018;-83
2021/09/23 00:50:58;;;;;;;40.63;21.35;;;11.20;99.90;;;;;;5009281;28;20034;-84
2021/09/23 00:53:24;;;;;;;39.88;20.45;;;11.20;99.90;;;;;;5009555;28;20022;-84
2021/09/23 00:55:50;;;;;;;42.13;21.60;;;11.20;99.90;;;;;;5011476;28;20033;-84
2021/09/23 00:58:16;;;;;;;36.03;19.40;;;11.20;99.90;;;;;;5013596;28;20386;-83
2021/09/23 01:00:42;;;;;;;40.05;19.85;;;11.10;99.90;;;;;;5013407;28;20033;-83
2021/09/23 01:03:07;;;;;;;37.70;20.17;;;11.20;99.90;;;;;;5012094;28;20050;-84
2021/09/23 01:05:33;;;;;;;40.35;19.98;;;11.10;99.90;;;;;;5013005;28;20033;-83
2021/09/23 01:07:58;;;;;;;41.13;21.17;;;11.10;99.90;;;;;;5013589;28;20088;-83
2021/09/23 01:10:24;;;;;;;44.65;21.02;;;11.10;99.90;;;;;;5014051;28;20084;-84
2021/09/23 01:12:49;;;;;;;50.55;22.83;;;11.00;99.90;;;;;;5015501;28;20041;-83
2021/09/23 01:15:17;;;;;;;39.05;19.77;;;11.00;99.90;;;;;;5009684;28;20045;-83
2021/09/23 01:17:44;;;;;;;42.67;21.48;;;11.00;99.90;;;;;;5013386;28;20574;-83
2021/09/23 01:20:11;;;;;;;36.28;19.30;;;10.90;99.90;;;;;;5012015;28;20018;-83
2021/09/23 01:22:37;;;;;;;42.30;23.02;;;10.90;99.90;;;;;;5029197;28;20041;-84
2021/09/23 01:25:05;;;;;;;47.42;22.90;;;10.90;99.90;;;;;;5010823;28;20033;-84
2021/09/23 01:27:32;;;;;;;44.72;21.13;;;10.90;99.90;;;;;;5012103;28;20164;-83
2021/09/23 01:29:57;;;;;;;45.17;23.20;;;10.80;99.90;;;;;;5012674;28;20060;-83
2021/09/23 01:32:23;;;;;;;46.42;23.35;;;10.80;99.90;;;;;;5010236;28;20026;-84
2021/09/23 01:34:48;;;;;;;42.63;22.52;;;10.80;99.90;;;;;;5010171;28;20045;-84
2021/09/23 01:37:15;;;;;;;46.38;22.40;;;10.80;99.90;;;;;;5013152;28;20028;-84
2021/09/23 01:39:40;;;;;;;42.30;21.80;;;10.70;99.90;;;;;;5009937;28;20113;-83
2021/09/23 01:42:06;;;;;;;52.33;22.65;;;10.70;99.90;;;;;;5012554;28;20140;-84
2021/09/23 01:44:32;;;;;;;44.58;21.80;;;10.70;99.90;;;;;;5013767;28;20488;-84
2021/09/23 01:46:57;;;;;;;48.58;22.85;;;10.70;99.90;;;;;;5012418;28;20030;-84
2021/09/23 01:49:23;;;;;;;49.38;22.50;;;10.70;99.90;;;;;;5011525;28;20028;-84
2021/09/23 01:51:49;;;;;;;44.05;22.10;;;10.60;99.90;;;;;;5011692;28;20393;-83
2021/09/23 01:54:15;;;;;;;49.47;23.20;;;10.60;99.90;;;;;;5011369;28;20018;-83
2021/09/23 01:56:40;;;;;;;47.75;22.77;;;10.60;99.90;;;;;;5011458;28;20034;-84
2021/09/23 01:59:06;;;;;;;50.63;22.95;;;10.60;99.90;;;;;;5011812;28;20091;-84
2021/09/23 02:01:32;;;;;;;44.72;24.13;;;10.70;99.90;;;;;;5013163;28;20041;-83
2021/09/23 02:03:58;;;;;;;49.00;24.38;;;10.70;99.90;;;;;;5012029;28;20033;-84
2021/09/23 02:06:24;;;;;;;46.42;24.15;;;10.70;99.90;;;;;;5012242;28;20481;-84
2021/09/23 02:08:49;;;;;;;48.95;23.17;;;10.70;99.90;;;;;;5009794;28;20034;-83
2021/09/23 02:11:15;;;;;;;53.55;25.02;;;10.70;99.90;;;;;;5013648;28;20029;-84
2021/09/23 02:13:41;;;;;;;48.63;23.88;;;10.70;99.90;;;;;;5013634;28;20026;-83
2021/09/23 02:16:06;;;;;;;50.28;22.50;;;10.70;99.90;;;;;;5011198;28;20026;-83
2021/09/23 02:18:32;;;;;;;50.88;24.83;;;10.70;99.90;;;;;;5011299;28;20390;-83
2021/09/23 02:20:58;;;;;;;53.50;25.08;;;10.70;99.90;;;;;;5011548;28;20026;-83
2021/09/23 02:23:24;;;;;;;48.95;25.25;;;10.60;99.90;;;;;;5012766;28;20045;-83
2021/09/23 02:25:49;;;;;;;47.78;23.50;;;10.70;99.90;;;;;;5012510;28;20109;-83
2021/09/23 02:28:15;;;;;;;51.08;25.15;;;10.70;99.90;;;;;;5013081;28;20478;-83
2021/09/23 02:30:41;;;;;;;49.83;23.95;;;10.70;99.90;;;;;;5011802;28;20030;-83
2021/09/23 02:33:07;;;;;;;50.53;25.67;;;10.60;99.90;;;;;;5009240;28;20080;-84
2021/09/23 02:35:32;;;;;;;56.85;27.85;;;10.60;99.90;;;;;;5010062;28;20489;-83
2021/09/23 02:37:58;;;;;;;44.78;24.45;;;10.60;99.90;;;;;;5013373;28;20030;-83
2021/09/23 02:40:24;;;;;;;50.40;24.77;;;10.50;99.90;;;;;;5013322;28;20464;-83
2021/09/23 02:42:49;;;;;;;49.28;25.25;;;10.40;99.90;;;;;;5010150;28;20045;-83
2021/09/23 02:45:15;;;;;;;52.35;25.63;;;10.40;99.90;;;;;;5013349;28;20080;-83
2021/09/23 02:47:41;;;;;;;53.55;26.92;;;10.30;99.90;;;;;;5012976;28;20026;-84
2021/09/23 02:50:08;;;;;;;53.03;25.15;;;10.30;99.90;;;;;;5011042;28;20451;-83
2021/09/23 02:52:34;;;;;;;53.58;27.70;;;10.30;99.90;;;;;;5009202;28;20477;-83
2021/09/23 02:54:59;;;;;;;54.63;27.77;;;10.30;99.90;;;;;;5011874;28;20091;-83
2021/09/23 02:57:25;;;;;;;48.65;25.40;;;10.30;99.90;;;;;;5011607;28;20130;-83
2021/09/23 02:59:50;;;;;;;51.45;27.13;;;10.30;99.90;;;;;;5011813;28;20092;-84
2021/09/23 03:02:16;;;;;;;49.20;26.85;;;10.30;99.90;;;;;;5009602;28;20034;-83
2021/09/23 03:04:42;;;;;;;48.38;26.83;;;10.30;99.90;;;;;;5011492;28;20045;-84
2021/09/23 03:07:07;;;;;;;53.63;26.88;;;10.30;99.90;;;;;;5008031;28;20069;-83
2021/09/23 03:09:33;;;;;;;53.63;26.65;;;10.30;99.90;;;;;;5007121;28;20053;-83
2021/09/23 03:11:59;;;;;;;50.42;26.58;;;10.30;99.90;;;;;;5012842;28;20030;-83
2021/09/23 03:14:24;;;;;;;47.22;25.00;;;10.30;99.90;;;;;;5009913;28;20014;-83
2021/09/23 03:16:50;;;;;;;48.35;27.42;;;10.30;99.90;;;;;;5010366;28;20026;-83
2021/09/23 03:19:15;;;;;;;50.28;25.98;;;10.30;99.90;;;;;;5010096;28;20152;-83
2021/09/23 03:21:41;;;;;;;51.15;26.50;;;10.40;99.90;;;;;;5008759;28;20036;-83
2021/09/23 03:24:07;;;;;;;45.13;24.20;;;10.40;99.90;;;;;;5008256;28;20233;-83
2021/09/23 03:26:34;;;;;;;47.38;25.00;;;10.40;99.90;;;;;;5000952;28;20048;-83
2021/09/23 03:28:59;;;;;;;46.53;25.00;;;10.50;99.90;;;;;;5008844;28;20124;-83
2021/09/23 03:31:25;;;;;;;42.42;24.65;;;10.50;99.90;;;;;;5009989;28;20026;-83
2021/09/23 03:33:51;;;;;;;44.13;24.63;;;10.40;99.90;;;;;;5010449;28;20046;-84
2021/09/23 03:36:17;;;;;;;47.58;25.70;;;10.40;99.90;;;;;;5012032;28;20026;-84
2021/09/23 03:38:42;;;;;;;46.53;25.27;;;10.50;99.90;;;;;;5011009;28;20172;-84
2021/09/23 03:41:09;;;;;;;46.05;24.42;;;10.50;99.90;;;;;;5001402;28;20090;-83
2021/09/23 03:43:35;;;;;;;42.30;23.73;;;10.50;99.90;;;;;;5010442;28;20084;-82
2021/09/23 03:46:04;;;;;;;48.75;26.58;;;10.40;99.90;;;;;;5010643;28;20029;-83
2021/09/23 03:48:31;;;;;;;43.13;25.52;;;10.40;99.90;;;;;;5010569;28;20481;-83
2021/09/23 03:50:58;;;;;;;47.20;26.08;;;10.40;99.90;;;;;;5009594;28;20052;-83
2021/09/23 03:53:24;;;;;;;49.22;26.60;;;10.40;99.90;;;;;;5010474;28;20057;-83
2021/09/23 03:55:49;;;;;;;46.03;25.88;;;10.40;99.90;;;;;;5010153;28;20022;-84
2021/09/23 03:58:15;;;;;;;45.67;25.83;;;10.40;99.90;;;;;;5009878;28;20041;-83
2021/09/23 04:00:40;;;;;;;50.00;26.52;;;10.40;99.90;;;;;;5008326;28;20026;-83
2021/09/23 04:03:06;;;;;;;48.95;25.88;;;10.30;99.90;;;;;;5010161;28;20042;-83
2021/09/23 04:05:31;;;;;;;43.72;25.27;;;10.30;99.90;;;;;;5009616;28;20029;-83
2021/09/23 04:07:57;;;;;;;44.47;26.42;;;10.30;99.90;;;;;;5009146;28;20030;-83
2021/09/23 04:10:22;;;;;;;44.55;26.30;;;10.30;99.90;;;;;;5010449;28;20026;-83
2021/09/23 04:12:49;;;;;;;48.47;27.10;;;10.30;99.90;;;;;;5010561;28;20050;-83
2021/09/23 04:15:15;;;;;;;48.47;25.95;;;10.30;99.90;;;;;;5009869;28;20026;-83
2021/09/23 04:17:40;;;;;;;39.55;25.15;;;10.30;99.90;;;;;;5008807;28;20083;-83
2021/09/23 04:20:07;;;;;;;48.15;26.90;;;10.30;99.90;;;;;;5009763;28;20064;-83
2021/09/23 04:22:32;;;;;;;44.70;25.90;;;10.30;99.90;;;;;;5005535;28;20042;-83
2021/09/23 04:24:58;;;;;;;46.65;27.40;;;10.20;99.90;;;;;;5008378;28;20052;-83
2021/09/23 04:27:24;;;;;;;47.15;27.20;;;10.30;99.90;;;;;;5011131;28;20033;-83
2021/09/23 04:29:49;;;;;;;48.42;27.38;;;10.20;99.90;;;;;;5032399;28;20512;-83
2021/09/23 04:32:15;;;;;;;48.42;26.95;;;10.20;99.90;;;;;;5009093;28;20108;-83
2021/09/23 04:34:40;;;;;;;46.42;27.13;;;10.20;99.90;;;;;;5025423;28;20546;-83
2021/09/23 04:37:06;;;;;;;48.88;26.80;;;10.20;99.90;;;;;;5010137;28;20536;-83
2021/09/23 04:39:32;;;;;;;49.53;27.33;;;10.20;99.90;;;;;;5008906;28;20033;-83
2021/09/23 04:41:58;;;;;;;50.60;28.05;;;10.10;99.90;;;;;;5002115;28;20046;-83
2021/09/23 04:44:25;;;;;;;45.47;26.90;;;10.10;99.90;;;;;;5005836;28;20029;-82
2021/09/23 04:46:51;;;;;;;50.85;27.73;;;10.10;99.90;;;;;;5005862;28;20037;-83
2021/09/23 04:49:17;;;;;;;51.38;29.15;;;10.10;99.90;;;;;;5026932;28;20438;-83
2021/09/23 04:51:43;;;;;;;51.60;29.20;;;10.10;99.90;;;;;;5004531;28;20033;-83
2021/09/23 04:54:08;;;;;;;50.20;27.83;;;10.10;99.90;;;;;;5009201;28;20026;-82
2021/09/23 04:56:35;;;;;;;49.47;28.35;;;10.10;99.90;;;;;;5007370;28;20073;-83
2021/09/23 04:59:01;;;;;;;48.65;30.70;;;10.10;99.90;;;;;;5007688;28;20048;-83
2021/09/23 05:01:27;;;;;;;47.85;29.55;;;10.10;99.90;;;;;;5004177;28;20514;-83
2021/09/23 05:03:53;;;;;;;45.10;28.52;;;10.10;99.90;;;;;;5009655;28;20080;-83
2021/09/23 05:06:19;;;;;;;48.78;28.13;;;10.10;99.90;;;;;;5007028;28;20034;-83
2021/09/23 05:08:45;;;;;;;51.10;28.80;;;10.10;99.90;;;;;;5008293;28;20026;-83
2021/09/23 05:11:10;;;;;;;46.33;27.52;;;10.10;99.90;;;;;;5026106;28;20105;-82
2021/09/23 05:13:36;;;;;;;42.88;26.48;;;10.10;99.90;;;;;;5013542;28;20080;-83
2021/09/23 05:16:02;;;;;;;44.83;27.73;;;10.10;99.90;;;;;;5007177;28;20034;-82
2021/09/23 05:18:27;;;;;;;43.78;26.92;;;10.10;99.90;;;;;;5008226;28;20034;-83
2021/09/23 05:20:53;;;;;;;50.15;30.08;;;10.20;99.90;;;;;;5011282;28;20018;-83
2021/09/23 05:23:19;;;;;;;44.55;28.08;;;10.10;99.90;;;;;;5008189;28;20087;-83
2021/09/23 05:25:45;;;;;;;47.53;27.98;;;10.20;99.90;;;;;;5004787;28;20501;-83
2021/09/23 05:28:11;;;;;;;42.67;27.35;;;10.20;99.90;;;;;;5011469;28;20030;-85
2021/09/23 05:30:37;;;;;;;48.75;28.20;;;10.30;99.90;;;;;;5015411;28;20022;-84
2021/09/23 05:33:03;;;;;;;50.60;29.38;;;10.30;99.90;;;;;;5009155;28;20065;-84
2021/09/23 05:35:28;;;;;;;45.60;27.77;;;10.30;99.90;;;;;;5008697;28;20068;-84
2021/09/23 05:37:54;;;;;;;52.97;28.95;;;10.30;99.90;;;;;;5009564;28;20030;-84
2021/09/23 05:40:19;;;;;;;47.30;27.83;;;10.30;99.90;;;;;;5010651;28;20096;-84
2021/09/23 05:42:45;;;;;;;52.80;29.05;;;10.40;99.90;;;;;;5008279;28;20112;-84
2021/09/23 05:45:11;;;;;;;52.45;26.98;;;10.40;99.90;;;;;;5011475;28;20509;-83
2021/09/23 05:47:41;;;;;;;47.90;29.23;;;10.40;99.90;;;;;;5010197;28;20521;-84
2021/09/23 05:50:09;;;;;;;47.65;27.85;;;10.40;99.90;;;;;;5012130;28;20436;-83
2021/09/23 05:52:34;;;;;;;45.45;28.90;;;10.40;99.90;;;;;;5006636;28;20026;-84
2021/09/23 05:55:00;;;;;;;51.88;28.45;;;10.50;99.90;;;;;;5009294;28;20076;-83
2021/09/23 05:57:33;;;;;;;47.25;29.00;;;10.50;99.90;;;;;;5005616;28;20487;-84
2021/09/23 05:59:59;;;;;;;42.88;27.80;;;10.60;99.90;;;;;;5007801;28;20033;-84
2021/09/23 06:02:25;;;;;;;49.60;30.13;;;10.60;99.90;;;;;;5009793;28;20041;-84
2021/09/23 06:04:50;;;;;;;48.85;30.17;;;10.60;99.90;;;;;;5016874;28;20022;-83
2021/09/23 06:07:16;;;;;;;44.72;28.98;;;10.60;99.90;;;;;;5015309;28;20466;-84
2021/09/23 06:09:42;;;;;;;48.42;29.45;;;10.70;99.90;;;;;;5014134;28;20079;-84
2021/09/23 06:12:08;;;;;;;49.80;29.90;;;10.70;99.90;;;;;;5012839;28;20095;-84
2021/09/23 06:14:34;;;;;;;56.83;32.67;;;10.80;99.90;;;;;;5014513;28;20094;-84
2021/09/23 06:17:00;;;;;;;54.28;32.97;;;10.90;99.90;;;;;;5014660;28;20030;-84
2021/09/23 06:19:25;;;;;;;51.60;31.60;;;11.00;99.90;;;;;;5014278;28;20056;-84
2021/09/23 06:21:51;;;;;;;53.78;33.33;;;11.10;99.90;;;;;;5013383;28;20034;-84
2021/09/23 06:24:16;;;;;;;52.67;34.17;;;11.20;99.90;;;;;;5015515;28;20030;-84
2021/09/23 06:26:42;;;;;;;54.15;33.00;;;11.30;99.90;;;;;;5011235;28;20053;-84
2021/09/23 06:29:08;;;;;;;57.22;33.30;;;11.40;99.90;;;;;;5011978;28;20084;-84
2021/09/23 06:31:35;;;;;;;52.25;33.13;;;11.50;99.90;;;;;;5014361;28;20049;-84
2021/09/23 06:34:00;;;;;;;50.80;31.92;;;11.60;99.90;;;;;;5012293;28;20129;-84
2021/09/23 06:36:26;;;;;;;50.78;31.98;;;11.70;99.90;;;;;;5012019;28;20117;-83
2021/09/23 06:38:51;;;;;;;52.08;32.90;;;11.90;99.90;;;;;;5012302;28;20120;-83
2021/09/23 06:41:17;;;;;;;51.60;33.60;;;12.00;99.90;;;;;;5012900;28;20030;-82
2021/09/23 06:43:45;;;;;;;57.55;34.45;;;12.10;99.90;;;;;;5012664;28;20390;-83
2021/09/23 06:46:13;;;;;;;54.45;33.10;;;12.20;99.90;;;;;;5018631;28;20031;-83
2021/09/23 06:48:38;;;;;;;54.20;32.97;;;12.30;99.90;;;;;;5010787;28;20028;-83
2021/09/23 06:51:04;;;;;;;59.38;35.13;;;12.40;99.90;;;;;;5011168;28;20114;-83
2021/09/23 06:53:29;;;;;;;54.42;33.22;;;12.50;99.90;;;;;;5013544;28;20041;-84
2021/09/23 06:55:55;;;;;;;59.10;35.47;;;12.60;99.90;;;;;;5014654;28;20034;-83
2021/09/23 06:58:21;;;;;;;53.55;34.10;;;12.70;99.90;;;;;;5010724;28;20045;-84
2021/09/23 07:00:46;;;;;;;55.70;34.20;;;12.80;99.90;;;;;;5012930;28;20033;-83
2021/09/23 07:03:12;;;;;;;52.08;33.78;;;12.90;99.90;;;;;;5013339;28;20038;-84
2021/09/23 07:05:42;;;;;;;53.33;35.65;;;13.00;99.90;;;;;;5009554;28;20124;-84
2021/09/23 07:08:07;;;;;;;55.55;33.88;;;13.10;99.90;;;;;;5012134;28;20049;-83
2021/09/23 07:10:33;;;;;;;53.90;33.33;;;13.20;99.90;;;;;;5011521;28;20017;-84
2021/09/23 07:12:59;;;;;;;52.67;33.60;;;13.30;99.90;;;;;;5014985;28;20460;-84
2021/09/23 07:15:24;;;;;;;51.25;32.55;;;13.30;99.90;;;;;;5013478;28;20375;-84
2021/09/23 07:17:50;;;;;;;52.40;33.33;;;13.40;99.90;;;;;;5011344;28;20030;-84
2021/09/23 07:20:15;;;;;;;54.45;34.05;;;13.40;99.90;;;;;;5014195;28;20030;-83
2021/09/23 07:22:41;;;;;;;56.65;35.67;;;13.40;99.90;;;;;;5014832;28;20367;-84
2021/09/23 07:25:07;;;;;;;52.72;33.53;;;13.50;99.90;;;;;;5014255;28;20187;-83
2021/09/23 07:27:32;;;;;;;53.50;33.50;;;13.50;99.90;;;;;;5014589;28;20026;-83
2021/09/23 07:29:58;;;;;;;65.25;34.83;;;13.60;99.90;;;;;;5010565;28;20375;-84
2021/09/23 07:32:23;;;;;;;51.63;34.75;;;13.60;99.90;;;;;;5011288;28;20041;-84
2021/09/23 07:34:49;;;;;;;50.58;32.10;;;13.70;99.90;;;;;;5011700;28;20030;-83
2021/09/23 07:37:15;;;;;;;55.80;35.65;;;13.80;99.90;;;;;;5011400;28;20042;-84
2021/09/23 07:39:41;;;;;;;59.42;36.80;;;13.90;99.90;;;;;;5011139;28;20083;-84
2021/09/23 07:42:07;;;;;;;56.30;33.65;;;14.10;99.90;;;;;;5011282;28;20265;-84
2021/09/23 07:44:33;;;;;;;52.13;33.83;;;14.20;99.90;;;;;;5011390;28;20157;-84
2021/09/23 07:46:59;;;;;;;50.45;34.38;;;14.30;99.90;;;;;;5010537;28;20092;-84
2021/09/23 07:49:26;;;;;;;49.85;32.28;;;14.40;99.90;;;;;;5010653;28;20056;-84
2021/09/23 07:51:51;;;;;;;57.17;35.25;;;14.60;99.90;;;;;;5011502;28;20029;-84
2021/09/23 07:54:17;;;;;;;49.97;33.83;;;14.70;99.90;;;;;;5010945;28;20033;-84
2021/09/23 07:56:44;;;;;;;46.70;32.28;;;14.80;99.90;;;;;;5009490;28;20656;-83
2021/09/23 07:59:10;;;;;;;47.28;31.70;;;14.90;99.90;;;;;;5010019;28;20014;-84
2021/09/23 08:01:35;;;;;;;44.00;30.15;;;15.00;99.90;;;;;;5010793;28;20104;-84
2021/09/23 08:04:01;;;;;;;49.72;32.67;;;15.10;99.90;;;;;;5010160;28;20053;-84
2021/09/23 08:06:26;;;;;;;42.47;30.73;;;15.20;99.90;;;;;;5008458;28;20038;-84
2021/09/23 08:08:52;;;;;;;44.75;30.98;;;15.30;99.90;;;;;;5008048;28;20032;-84
2021/09/23 08:11:17;;;;;;;43.83;29.02;;;15.30;99.90;;;;;;5005421;28;20494;-84
2021/09/23 08:13:43;;;;;;;47.47;30.67;;;15.40;99.90;;;;;;5012456;28;20025;-85
2021/09/23 08:16:08;;;;;;;44.75;28.45;;;15.40;99.90;;;;;;5012898;28;20022;-85
2021/09/23 08:18:34;;;;;;;42.65;29.65;;;15.50;99.90;;;;;;5013166;28;20036;-85
2021/09/23 08:20:59;;;;;;;45.47;28.13;;;15.60;99.90;;;;;;5012461;28;20061;-85
2021/09/23 08:23:25;;;;;;;38.50;26.90;;;15.70;99.90;;;;;;5012319;28;20026;-85
2021/09/23 08:25:52;;;;;;;35.75;25.98;;;15.80;99.90;;;;;;5010347;28;20478;-85
2021/09/23 08:28:19;;;;;;;40.90;28.95;;;15.80;99.90;;;;;;5007265;28;20048;-85
2021/09/23 08:30:46;;;;;;;37.33;24.63;;;15.80;99.90;;;;;;5005674;28;20022;-85
2021/09/23 08:33:12;;;;;;;37.13;25.05;;;15.90;99.90;;;;;;5013326;28;20514;-85
2021/09/23 08:35:37;;;;;;;37.85;26.27;;;15.90;99.90;;;;;;5013064;28;20029;-85
2021/09/23 08:38:03;;;;;;;41.72;25.75;;;15.90;99.90;;;;;;5013350;28;20030;-85
2021/09/23 08:40:29;;;;;;;36.60;23.88;;;15.90;99.90;;;;;;5012394;28;20371;-85
2021/09/23 08:42:54;;;;;;;42.63;27.02;;;16.00;99.90;;;;;;5012645;28;20041;-85
2021/09/23 08:45:21;;;;;;;36.40;24.73;;;16.00;99.90;;;;;;5011288;28;20382;-85
2021/09/23 08:47:47;;;;;;;31.25;22.95;;;16.20;99.90;;;;;;5013775;28;20034;-85
2021/09/23 08:50:16;;;;;;;34.45;22.85;;;16.30;99.90;;;;;;5012955;28;20454;-85
2021/09/23 08:52:42;;;;;;;34.55;24.17;;;16.40;99.90;;;;;;5013164;28;20084;-85
2021/09/23 08:55:20;;;;;;;36.67;24.35;;;16.50;99.90;;;;;;5012485;28;20478;-85
2021/09/23 08:57:46;;;;;;;31.33;21.83;;;16.70;99.90;;;;;;5013171;28;20557;-86
2021/09/23 09:00:12;;;;;;;29.30;20.73;;;16.90;99.90;;;;;;5009580;28;20125;-85
2021/09/23 09:02:37;;;;;;;31.52;20.70;;;17.00;99.70;;;;;;5010725;28;20048;-85
2021/09/23 09:05:03;;;;;;;27.65;19.65;;;17.10;99.40;;;;;;5011605;28;20113;-85
2021/09/23 09:07:29;;;;;;;31.80;20.40;;;17.20;99.00;;;;;;5011196;28;20034;-85
2021/09/23 09:10:04;;;;;;;27.73;19.27;;;17.30;98.70;;;;;;5012627;28;20022;-84
2021/09/23 09:12:30;;;;;;;34.35;19.58;;;17.30;98.40;;;;;;5028890;28;20080;-85
2021/09/23 09:14:56;;;;;;;27.00;17.58;;;17.30;98.30;;;;;;5011787;28;20018;-85
2021/09/23 09:17:22;;;;;;;27.08;17.85;;;17.30;98.30;;;;;;5015048;28;20053;-86
2021/09/23 09:19:59;;;;;;;28.05;17.63;;;17.40;98.30;;;;;;5016045;28;20112;-85
2021/09/23 09:22:28;;;;;;;24.20;15.57;;;17.60;97.90;;;;;;5008279;28;20116;-86
2021/09/23 09:24:58;;;;;;;25.02;15.98;;;17.70;97.50;;;;;;5026644;28;20033;-86
2021/09/23 09:27:33;;;;;;;24.88;15.10;;;17.80;97.20;;;;;;5015929;28;20054;-85
2021/09/23 09:30:13;;;;;;;17.00;13.35;;;17.90;97.00;;;;;;5015613;28;20026;-85
2021/09/23 09:32:50;;;;;;;21.17;13.68;;;18.00;96.90;;;;;;5009233;28;20026;-85
2021/09/23 09:35:30;;;;;;;20.58;12.95;;;18.00;96.60;;;;;;5016314;28;20029;-85
2021/09/23 09:37:59;;;;;;;19.95;12.80;;;18.00;96.40;;;;;;5016403;28;20490;-85
2021/09/23 09:40:32;;;;;;;17.20;13.23;;;18.00;96.30;;;;;;5014390;28;20034;-85
2021/09/23 09:43:03;;;;;;;19.92;13.70;;;18.00;96.30;;;;;;5016240;28;20123;-85
2021/09/23 09:45:29;;;;;;;22.00;13.65;;;18.00;96.20;;;;;;5016328;28;20022;-85
2021/09/23 09:47:56;;;;;;;18.55;11.77;;;17.90;96.00;;;;;;5016242;28;20041;-85
2021/09/23 09:50:27;;;;;;;18.50;14.07;;;17.80;96.20;;;;;;5011666;28;20030;-85
2021/09/23 09:52:58;;;;;;;19.23;14.63;;;17.80;96.20;;;;;;5008767;28;20036;-86
2021/09/23 09:55:26;;;;;;;26.58;16.15;;;17.80;96.30;;;;;;5017210;28;20033;-85
2021/09/23 09:57:53;;;;;;;24.85;14.88;;;17.80;96.10;;;;;;5014077;28;20033;-85
2021/09/23 10:00:20;;;;;;;20.42;13.90;;;17.90;96.20;;;;;;5013872;28;20129;-86
2021/09/23 10:02:47;;;;;;;19.65;14.52;;;18.00;96.20;;;;;;4998530;28;20089;-86
2021/09/23 10:05:15;;;;;;;19.15;13.55;;;18.20;95.90;;;;;;5001835;28;20117;-84
2021/09/23 10:07:44;;;;;;;20.83;13.05;;;18.20;95.60;;;;;;5019698;28;20533;-84
2021/09/23 10:10:11;;;;;;;19.23;12.95;;;18.20;95.30;;;;;;5013064;28;20554;-85
2021/09/23 10:12:40;;;;;;;19.00;12.35;;;18.10;95.40;;;;;;5021449;28;20048;-84
2021/09/23 10:15:08;;;;;;;18.20;12.60;;;18.10;95.60;;;;;;5012817;28;20022;-85
2021/09/23 10:17:34;;;;;;;19.67;13.02;;;18.30;95.70;;;;;;5013798;28;20117;-85
2021/09/23 10:20:02;;;;;;;23.45;12.45;;;18.30;95.40;;;;;;5015196;28;20481;-86
2021/09/23 10:22:28;;;;;;;15.35;11.10;;;18.40;95.20;;;;;;5013582;28;20046;-85
2021/09/23 10:24:55;;;;;;;18.55;10.63;;;18.30;95.50;;;;;;5020765;28;20037;-85
2021/09/23 10:30:08;;;;;;;15.25;9.70;;;18.50;94.90;;;;;;5013970;28;20068;-85
2021/09/23 10:32:35;;;;;;;15.57;8.57;;;18.50;94.80;;;;;;5014298;28;20018;-85
2021/09/23 10:35:01;;;;;;;15.52;9.27;;;18.60;94.70;;;;;;5002770;28;20034;-85
2021/09/23 10:37:27;;;;;;;13.23;6.93;;;18.60;94.40;;;;;;5010408;28;20141;-84
2021/09/23 10:39:53;;;;;;;16.77;8.30;;;18.60;94.10;;;;;;5014311;28;20026;-85
2021/09/23 10:42:22;;;;;;;10.68;6.80;;;18.70;94.00;;;;;;5012111;28;20157;-85
2021/09/23 10:44:51;;;;;;;19.67;6.85;;;18.70;93.60;;;;;;5014022;28;20057;-85
2021/09/23 10:47:34;;;;;;;23.55;7.47;;;18.70;93.60;;;;;;5013128;28;20030;-84
2021/09/23 10:50:01;;;;;;;14.07;6.88;;;18.80;93.50;;;;;;5010141;28;20034;-85
2021/09/23 10:52:30;;;;;;;13.18;7.72;;;18.80;93.40;;;;;;5010131;28;20401;-84
2021/09/23 10:54:58;;;;;;;9.45;5.63;;;18.90;93.50;;;;;;5010749;28;20475;-85
2021/09/23 10:57:26;;;;;;;10.13;6.32;;;18.90;93.40;;;;;;5014939;28;20022;-86
2021/09/23 10:59:53;;;;;;;11.45;6.22;;;19.00;93.20;;;;;;5015084;28;20033;-86
2021/09/23 11:02:24;;;;;;;10.75;5.03;;;19.00;93.30;;;;;;5011466;28;20062;-85
2021/09/23 11:04:55;;;;;;;8.20;4.50;;;18.90;93.30;;;;;;5009204;28;20046;-84
2021/09/23 11:07:23;;;;;;;8.27;4.13;;;18.80;93.00;;;;;;5014529;28;20026;-84
2021/09/23 11:10:07;;;;;;;8.48;4.25;;;18.60;93.20;;;;;;5013692;28;20034;-84
2021/09/23 11:12:33;;;;;;;8.88;4.35;;;18.50;93.10;;;;;;5024209;28;20034;-84
2021/09/23 11:15:00;;;;;;;9.25;4.95;;;18.40;93.40;;;;;;5013811;28;20485;-84
2021/09/23 11:17:28;;;;;;;7.00;4.55;;;18.40;93.60;;;;;;5013988;28;20067;-84
2021/09/23 11:20:02;;;;;;;9.30;4.63;;;18.40;93.80;;;;;;5014500;28;20029;-84
2021/09/23 11:22:33;;;;;;;12.32;6.13;;;18.40;93.90;;;;;;5014213;28;20072;-84
2021/09/23 11:25:00;;;;;;;11.57;5.07;;;18.40;93.90;;;;;;5014393;28;20018;-84
2021/09/23 11:27:26;;;;;;;8.38;4.63;;;18.40;94.00;;;;;;5014340;28;20029;-84
2021/09/23 11:29:52;;;;;;;8.68;5.40;;;18.40;94.10;;;;;;5015553;28;20372;-84
2021/09/23 11:32:20;;;;;;;8.57;4.53;;;18.50;94.10;;;;;;5014362;28;20041;-84
2021/09/23 11:35:03;;;;;;;7.53;3.38;;;18.50;93.90;;;;;;5013712;28;20402;-84
2021/09/23 11:37:31;;;;;;;5.82;2.97;;;18.50;93.90;;;;;;5030696;28;20026;-84
2021/09/23 11:39:59;;;;;;;13.77;3.45;;;18.50;93.60;;;;;;5014143;28;20033;-84
2021/09/23 11:42:31;;;;;;;7.28;2.35;;;18.50;93.40;;;;;;5014285;28;20445;-84
2021/09/23 11:45:25;;;;;;;6.18;2.60;;;18.60;93.30;;;;;;5011917;28;20080;-84
2021/09/23 11:47:55;;;;;;;7.00;3.00;;;18.60;92.90;;;;;;5008912;28;20299;-84
2021/09/23 11:50:36;;;;;;;5.13;2.22;;;18.60;93.00;;;;;;4994946;28;20490;-84
2021/09/23 11:53:12;;;;;;;6.40;2.33;;;18.70;93.00;;;;;;5003031;28;20483;-84
2021/09/23 11:55:43;;;;;;;4.88;1.92;;;18.80;92.80;;;;;;5007365;28;20030;-84
2021/09/23 11:58:13;;;;;;;5.80;1.80;;;18.90;92.60;;;;;;5013943;28;20041;-84
2021/09/23 12:00:42;;;;;;;6.25;1.95;;;18.90;92.40;;;;;;5015889;28;20018;-84
2021/09/23 12:03:10;;;;;;;5.10;1.92;;;19.10;92.20;;;;;;5013243;28;20057;-84
2021/09/23 12:05:36;;;;;;;4.97;1.60;;;19.20;92.00;;;;;;5012911;28;20108;-83
2021/09/23 12:08:07;;;;;;;8.18;2.72;;;19.40;92.20;;;;;;5015259;28;20030;-84
2021/09/23 12:10:33;;;;;;;4.50;1.75;;;19.50;91.30;;;;;;5014888;28;20022;-83
2021/09/23 12:13:00;;;;;;;5.03;2.13;;;19.60;91.30;;;;;;5013527;28;20082;-84
2021/09/23 12:15:30;;;;;;;4.43;1.85;;;19.70;91.00;;;;;;5012496;28;20028;-87
2021/09/23 12:17:58;;;;;;;7.53;2.05;;;19.70;90.90;;;;;;5012741;28;20028;-84
2021/09/23 12:20:46;;;;;;;4.05;1.85;;;19.90;91.00;;;;;;5017913;28;20025;-84
2021/09/23 12:23:31;;;;;;;4.05;1.55;;;20.00;90.50;;;;;;5029814;28;20046;-84
2021/09/23 12:26:17;;;;;;;7.53;1.80;;;20.30;90.20;;;;;;5014778;28;20038;-84
2021/09/23 12:28:43;;;;;;;6.50;2.55;;;20.40;90.10;;;;;;5014417;28;20022;-84
2021/09/23 12:31:11;;;;;;;5.47;1.67;;;20.50;88.50;;;;;;5027082;28;20036;-83
2021/09/23 12:33:53;;;;;;;5.05;1.67;;;20.40;88.00;;;;;;5008529;28;20068;-84